TimeIST,TemperatureF,Dew PointF,Humidity,Sea Level PressureIn,VisibilityMPH,Wind Direction,Wind SpeedMPH,Gust SpeedMPH,PrecipitationIn,Events,Conditions,WindDirDegrees,DateUTC
12:00 AM,57.2,57.2,100,29.92,1.0,SSW,16.1,-,N/A,,Mostly Cloudy,210,2013-07-03 23:00:00
12:30 AM,57.2,57.2,100,29.92,0.3,SW,13.8,-,N/A,Fog,Fog,220,2013-07-03 23:30:00
1:00 AM,56,56,100,29.93,1,SW,17.9,,,Fog,Light Fog,220,2013-07-04 00:00:00
1:00 AM,57.2,57.2,100,29.92,1.0,SW,17.3,-,N/A,,Mostly Cloudy,220,2013-07-04 00:00:00
1:30 AM,57.2,57.2,100,29.92,0.7,SW,15.0,-,N/A,,Overcast,220,2013-07-04 00:30:00
2:00 AM,55.4,55.4,100,29.92,0.7,SSW,15.0,-,N/A,,Mostly Cloudy,210,2013-07-04 01:00:00
2:30 AM,57.2,57.2,100,29.92,1.2,SW,15.0,-,N/A,,Mostly Cloudy,220,2013-07-04 01:30:00
3:00 AM,57.2,57.2,100,29.92,1.2,SW,17.3,-,N/A,,Mostly Cloudy,220,2013-07-04 02:00:00
3:30 AM,55.4,55.4,100,29.89,1.5,SW,18.4,-,N/A,,Mostly Cloudy,220,2013-07-04 02:30:00
4:00 AM,57.2,57.2,100,29.89,1.6,SW,19.6,-,N/A,Rain,Light Rain,220,2013-07-04 03:00:00
4:30 AM,57.2,57.2,100,29.89,2.5,SW,18.4,-,N/A,Rain,Light Rain,220,2013-07-04 03:30:00
5:00 AM,57.2,57.2,100,29.89,3.7,SW,17.3,-,N/A,Rain,Light Rain,220,2013-07-04 04:00:00
5:30 AM,57.2,57.2,100,29.89,4.3,SW,15.0,-,N/A,,Light Drizzle,230,2013-07-04 04:30:00
6:00 AM,57.2,57.2,100,29.89,6.2,WSW,13.8,-,N/A,,Mostly Cloudy,250,2013-07-04 05:00:00
6:30 AM,57.2,57.2,100,29.92,6.2,West,17.3,-,N/A,,Scattered Clouds,260,2013-07-04 05:30:00
7:00 AM,57,55,92,29.96,19,West,13.4,,,,Partly Cloudy,260,2013-07-04 06:00:00
7:00 AM,57.2,55.4,94,29.95,6.2,West,12.7,-,N/A,,Partly Cloudy,260,2013-07-04 06:00:00
7:30 AM,57.2,55.4,94,29.95,6.2,WSW,12.7,-,N/A,,Partly Cloudy,240,2013-07-04 06:30:00
8:00 AM,57.2,51.8,82,29.98,6.2,West,13.8,-,N/A,,Scattered Clouds,260,2013-07-04 07:00:00
8:30 AM,57.2,51.8,82,29.98,6.2,West,16.1,-,N/A,,Partly Cloudy,270,2013-07-04 07:30:00
9:00 AM,59.0,51.8,77,30.01,6.2,West,15.0,-,N/A,,Partly Cloudy,270,2013-07-04 08:00:00
9:30 AM,59.0,50.0,72,30.04,6.2,West,13.8,-,N/A,,Scattered Clouds,270,2013-07-04 08:30:00
10:00 AM,59.0,50.0,72,30.04,6.2,West,18.4,-,N/A,,Scattered Clouds,280,2013-07-04 09:00:00
10:30 AM,59.0,50.0,72,30.04,6.2,West,13.8,-,N/A,,Partly Cloudy,270,2013-07-04 09:30:00
11:00 AM,60.8,50.0,68,30.06,6.2,West,17.3,-,N/A,,Scattered Clouds,280,2013-07-04 10:00:00
11:30 AM,60.8,50.0,68,30.06,6.2,West,19.6,-,N/A,,Scattered Clouds,270,2013-07-04 10:30:00
12:00 PM,62.6,50.0,63,30.09,6.2,West,17.3,-,N/A,,Scattered Clouds,280,2013-07-04 11:00:00
12:30 PM,62.6,51.8,68,30.09,6.2,West,15.0,-,N/A,,Scattered Clouds,270,2013-07-04 11:30:00
1:00 PM,64,52,55,30.12,28,West,13.4,,,,Mostly Cloudy,280,2013-07-04 12:00:00
1:00 PM,64.4,51.8,64,30.09,6.2,West,13.8,-,N/A,,Scattered Clouds,280,2013-07-04 12:00:00
1:30 PM,60.8,50.0,68,30.12,6.2,WNW,11.5,-,N/A,,Scattered Clouds,290,2013-07-04 12:30:00
2:00 PM,62.6,51.8,68,30.12,6.2,WNW,11.5,-,N/A,,Partly Cloudy,300,2013-07-04 13:00:00
2:30 PM,62.6,51.8,68,30.12,6.2,West,10.4,-,N/A,,Scattered Clouds,280,2013-07-04 13:30:00
3:00 PM,64.4,50.0,59,30.15,6.2,West,10.4,-,N/A,,Partly Cloudy,260,2013-07-04 14:00:00
3:30 PM,64.4,50.0,59,30.15,6.2,West,11.5,-,N/A,,Scattered Clouds,280,2013-07-04 14:30:00
4:00 PM,64.4,50.0,59,30.15,6.2,WNW,9.2,-,N/A,,Scattered Clouds,300,2013-07-04 15:00:00
4:30 PM,66.2,50.0,56,30.15,6.2,WNW,12.7,-,N/A,,Scattered Clouds,290,2013-07-04 15:30:00
5:00 PM,66.2,50.0,56,30.18,6.2,West,12.7,-,N/A,,Scattered Clouds,280,2013-07-04 16:00:00
5:30 PM,64.4,50.0,59,30.18,6.2,West,11.5,-,N/A,,Partly Cloudy,280,2013-07-04 16:30:00
6:00 PM,64.4,50.0,59,30.18,6.2,WNW,11.5,-,N/A,,Scattered Clouds,290,2013-07-04 17:00:00
6:30 PM,62.6,50.0,63,30.21,6.2,West,11.5,-,N/A,,Partly Cloudy,270,2013-07-04 17:30:00
7:00 PM,62,49,52,30.22,22,West,13.4,,,,Scattered Clouds,280,2013-07-04 18:00:00
7:00 PM,62.6,48.2,59,30.21,6.2,West,13.8,-,N/A,,Scattered Clouds,280,2013-07-04 18:00:00
7:30 PM,60.8,48.2,63,30.21,6.2,West,10.4,-,N/A,,Scattered Clouds,280,2013-07-04 18:30:00
8:00 PM,60.8,48.2,63,30.21,6.2,West,9.2,-,N/A,,Mostly Cloudy,270,2013-07-04 19:00:00
8:30 PM,59.0,50.0,72,30.24,6.2,West,10.4,-,N/A,,Mostly Cloudy,270,2013-07-04 19:30:00
9:00 PM,57.2,48.2,72,30.24,6.2,West,9.2,-,N/A,,Mostly Cloudy,270,2013-07-04 20:00:00
9:30 PM,55.4,48.2,77,30.27,6.2,West,6.9,-,N/A,,Scattered Clouds,260,2013-07-04 20:30:00
10:00 PM,53.6,48.2,82,30.27,6.2,West,6.9,-,N/A,,Partly Cloudy,260,2013-07-04 21:00:00
10:30 PM,53.6,48.2,82,30.27,6.2,WSW,4.6,-,N/A,,Partly Cloudy,250,2013-07-04 21:30:00
11:00 PM,53.6,48.2,82,30.30,6.2,WSW,8.1,-,N/A,,Partly Cloudy,250,2013-07-04 22:00:00
11:30 PM,51.8,48.2,88,30.30,6.2,West,6.9,-,N/A,,Partly Cloudy,260,2013-07-04 22:30:00